Hovedside
METAR-TAF:

METAR-TAF

Lufthavner :

Svalbard lufthavn. Longyear

Longyearbyen, Norge

breddegrad: 78-15N, lengdegrad: 015-28E, høyde over havet: 2 m

Gjeldene værobservasjon

Denne rapporten ble laget for 26 minutter siden, klokken 07:50 UTC
Vind 13 kt fra Vest
Temperatur 5°C
Luftfuktighet 87%
Trykk 1011 hPa
Sikt: 0800 m
Få skyer i en høyde av 400 ft
Spredte skyer i en høyde av 18000 ft
Delvis dekket av tåke

METAR: ENSB 230750Z 26013KT 6000 0800W PRFG FEW004 SCT180 05/03 Q1011 RMK WIND 1400FT 17004KT

Tid: 10:16 (08:16 UTC)

Varsel

Varsel gyldig fra 23. klokken 06 UTC til 24. klokken 06 UTC
Vind 8 kt fra Vest
Sikt 10 km eller mer
Få skyer i en høyde av 800 ft
Spredte skyer i en høyde av 5000 ft
Sannsynlighet 40% :
Midlertidig
fra 23. klokken 06 UTC til 23. klokken 18 UTC
Sikt: 0500 m
i en høyde av 300 ft
tåke
Blir
fra 23. klokken 17 UTC til 23. klokken 19 UTC
Vind 10 kt fra Øst-sørøst

TAF: ENSB 2306/2406 26008KT 9999 FEW008 SCT050 PROB40 TEMPO 2306/2318 0500 FG VV003 BECMG 2317/2319 12010KT

Værobservasjoner og værvarsel for over 4000 flyplasser (METAR- og TAF-rapporter).

Tilgjengelige stasjoner er representert av de røde og gule prikkene på kartet.

Hold musepekeren over prikken for å se navnet på stasjonen.

Klikk så for å se værobservasjoner og -varsler.

For å forandre kartet kan du klikke på den grønne knappen med svart kryss for å zoome inn, på den grønne knappen med strek for å zoome ut, eller på de grønne pilene for å se tilstøtende kart.


METAR-TAF: